sensor_id;sensor_type;location;lat;lon;timestamp;temperature;humidity
23618;DHT22;18207;32.078;34.818;2023-03-31T00:00:01;21.00;29.20
23618;DHT22;18207;32.078;34.818;2023-03-31T00:02:38;21.00;29.20
23618;DHT22;18207;32.078;34.818;2023-03-31T00:05:10;21.00;29.20
23618;DHT22;18207;32.078;34.818;2023-03-31T00:07:44;21.00;29.20
23618;DHT22;18207;32.078;34.818;2023-03-31T00:10:15;21.00;29.20
23618;DHT22;18207;32.078;34.818;2023-03-31T00:12:46;21.00;29.20
23618;DHT22;18207;32.078;34.818;2023-03-31T00:15:18;21.00;29.20
23618;DHT22;18207;32.078;34.818;2023-03-31T00:17:48;21.00;29.20
23618;DHT22;18207;32.078;34.818;2023-03-31T00:20:19;21.00;29.20
23618;DHT22;18207;32.078;34.818;2023-03-31T00:22:49;21.00;29.20
23618;DHT22;18207;32.078;34.818;2023-03-31T00:25:21;21.00;29.20
23618;DHT22;18207;32.078;34.818;2023-03-31T00:27:52;21.00;29.20
23618;DHT22;18207;32.078;34.818;2023-03-31T00:30:24;21.00;29.20
23618;DHT22;18207;32.078;34.818;2023-03-31T00:32:55;21.00;29.10
23618;DHT22;18207;32.078;34.818;2023-03-31T00:35:26;21.00;29.10
23618;DHT22;18207;32.078;34.818;2023-03-31T00:37:56;21.00;29.10
23618;DHT22;18207;32.078;34.818;2023-03-31T00:40:26;21.00;29.00
23618;DHT22;18207;32.078;34.818;2023-03-31T00:42:57;21.00;29.00
23618;DHT22;18207;32.078;34.818;2023-03-31T00:45:30;21.00;29.00
23618;DHT22;18207;32.078;34.818;2023-03-31T00:48:04;21.00;29.10
23618;DHT22;18207;32.078;34.818;2023-03-31T00:50:42;21.00;29.00
23618;DHT22;18207;32.078;34.818;2023-03-31T00:53:21;21.00;29.00
23618;DHT22;18207;32.078;34.818;2023-03-31T00:56:00;21.00;29.00
23618;DHT22;18207;32.078;34.818;2023-03-31T00:58:35;21.00;29.00
23618;DHT22;18207;32.078;34.818;2023-03-31T01:01:13;21.00;29.00
23618;DHT22;18207;32.078;34.818;2023-03-31T01:03:47;21.00;28.90
23618;DHT22;18207;32.078;34.818;2023-03-31T01:06:18;21.00;28.90
23618;DHT22;18207;32.078;34.818;2023-03-31T01:08:51;21.00;28.80
23618;DHT22;18207;32.078;34.818;2023-03-31T01:11:25;21.00;28.80
23618;DHT22;18207;32.078;34.818;2023-03-31T01:13:57;21.00;28.70
23618;DHT22;18207;32.078;34.818;2023-03-31T01:16:30;21.00;28.70
23618;DHT22;18207;32.078;34.818;2023-03-31T01:19:00;21.00;28.70
23618;DHT22;18207;32.078;34.818;2023-03-31T01:28:30;21.00;28.60
23618;DHT22;18207;32.078;34.818;2023-03-31T01:31:22;21.00;28.60
23618;DHT22;18207;32.078;34.818;2023-03-31T01:34:51;21.00;28.50
23618;DHT22;18207;32.078;34.818;2023-03-31T01:37:59;21.00;28.60
23618;DHT22;18207;32.078;34.818;2023-03-31T01:41:16;21.00;28.50
23618;DHT22;18207;32.078;34.818;2023-03-31T01:44:00;21.00;28.50
23618;DHT22;18207;32.078;34.818;2023-03-31T01:46:42;21.00;28.50
23618;DHT22;18207;32.078;34.818;2023-03-31T01:49:24;21.00;29.00
23618;DHT22;18207;32.078;34.818;2023-03-31T01:52:05;21.00;28.50
23618;DHT22;18207;32.078;34.818;2023-03-31T01:54:47;21.00;28.60
23618;DHT22;18207;32.078;34.818;2023-03-31T01:57:28;21.00;28.50
23618;DHT22;18207;32.078;34.818;2023-03-31T02:00:04;21.00;28.50
23618;DHT22;18207;32.078;34.818;2023-03-31T02:02:42;21.00;28.50
23618;DHT22;18207;32.078;34.818;2023-03-31T02:05:17;21.00;28.50
23618;DHT22;18207;32.078;34.818;2023-03-31T02:07:54;21.00;28.50
23618;DHT22;18207;32.078;34.818;2023-03-31T02:10:30;21.00;28.50
23618;DHT22;18207;32.078;34.818;2023-03-31T02:13:06;21.00;28.50
23618;DHT22;18207;32.078;34.818;2023-03-31T02:15:40;21.00;28.60
23618;DHT22;18207;32.078;34.818;2023-03-31T02:18:16;21.00;28.50
23618;DHT22;18207;32.078;34.818;2023-03-31T02:20:54;21.00;28.50
23618;DHT22;18207;32.078;34.818;2023-03-31T02:23:28;21.00;28.50
23618;DHT22;18207;32.078;34.818;2023-03-31T02:26:03;21.10;28.60
23618;DHT22;18207;32.078;34.818;2023-03-31T02:28:41;21.10;28.60
23618;DHT22;18207;32.078;34.818;2023-03-31T02:31:23;21.10;28.60
23618;DHT22;18207;32.078;34.818;2023-03-31T02:33:58;21.10;28.50
23618;DHT22;18207;32.078;34.818;2023-03-31T02:36:29;21.10;28.60
23618;DHT22;18207;32.078;34.818;2023-03-31T02:39:03;21.10;28.50
23618;DHT22;18207;32.078;34.818;2023-03-31T02:41:37;21.10;28.50
23618;DHT22;18207;32.078;34.818;2023-03-31T02:44:10;21.10;28.50
23618;DHT22;18207;32.078;34.818;2023-03-31T02:46:40;21.10;28.40
23618;DHT22;18207;32.078;34.818;2023-03-31T02:49:11;21.10;28.40
23618;DHT22;18207;32.078;34.818;2023-03-31T02:55:19;21.10;28.30
23618;DHT22;18207;32.078;34.818;2023-03-31T02:58:29;21.10;28.20
23618;DHT22;18207;32.078;34.818;2023-03-31T03:01:17;21.10;28.20
23618;DHT22;18207;32.078;34.818;2023-03-31T03:04:15;21.10;28.20
23618;DHT22;18207;32.078;34.818;2023-03-31T03:07:06;21.10;28.20
23618;DHT22;18207;32.078;34.818;2023-03-31T03:09:50;21.10;28.30
23618;DHT22;18207;32.078;34.818;2023-03-31T03:12:32;21.10;28.30
23618;DHT22;18207;32.078;34.818;2023-03-31T03:15:12;21.10;28.30
23618;DHT22;18207;32.078;34.818;2023-03-31T03:17:49;21.10;28.30
23618;DHT22;18207;32.078;34.818;2023-03-31T03:20:21;21.10;28.30
23618;DHT22;18207;32.078;34.818;2023-03-31T03:22:52;21.10;28.40
23618;DHT22;18207;32.078;34.818;2023-03-31T03:25:22;21.10;28.30
23618;DHT22;18207;32.078;34.818;2023-03-31T03:27:53;21.10;28.40
23618;DHT22;18207;32.078;34.818;2023-03-31T03:30:24;21.10;28.40
23618;DHT22;18207;32.078;34.818;2023-03-31T03:32:57;21.10;28.40
23618;DHT22;18207;32.078;34.818;2023-03-31T03:35:28;21.10;28.40
23618;DHT22;18207;32.078;34.818;2023-03-31T03:37:58;21.10;28.40
23618;DHT22;18207;32.078;34.818;2023-03-31T03:40:28;21.10;28.50
23618;DHT22;18207;32.078;34.818;2023-03-31T03:42:59;21.10;28.50
23618;DHT22;18207;32.078;34.818;2023-03-31T03:45:29;21.10;28.50
23618;DHT22;18207;32.078;34.818;2023-03-31T03:48:01;21.10;28.50
23618;DHT22;18207;32.078;34.818;2023-03-31T03:50:36;21.10;28.50
23618;DHT22;18207;32.078;34.818;2023-03-31T03:53:07;21.10;28.50
23618;DHT22;18207;32.078;34.818;2023-03-31T03:55:37;21.10;28.50
23618;DHT22;18207;32.078;34.818;2023-03-31T03:58:08;21.10;28.50
23618;DHT22;18207;32.078;34.818;2023-03-31T04:00:38;21.10;28.60
23618;DHT22;18207;32.078;34.818;2023-03-31T04:03:10;21.10;28.50
23618;DHT22;18207;32.078;34.818;2023-03-31T04:05:41;21.20;28.60
23618;DHT22;18207;32.078;34.818;2023-03-31T04:08:11;21.20;28.60
23618;DHT22;18207;32.078;34.818;2023-03-31T04:10:43;21.20;28.60
23618;DHT22;18207;32.078;34.818;2023-03-31T04:13:15;21.20;28.60
23618;DHT22;18207;32.078;34.818;2023-03-31T04:15:46;21.20;28.60
23618;DHT22;18207;32.078;34.818;2023-03-31T04:18:19;21.20;28.70
23618;DHT22;18207;32.078;34.818;2023-03-31T04:20:51;21.20;28.70
23618;DHT22;18207;32.078;34.818;2023-03-31T04:23:30;21.20;28.70
23618;DHT22;18207;32.078;34.818;2023-03-31T04:26:01;21.20;28.70
23618;DHT22;18207;32.078;34.818;2023-03-31T04:28:35;21.20;28.70
23618;DHT22;18207;32.078;34.818;2023-03-31T04:31:10;21.30;28.70
23618;DHT22;18207;32.078;34.818;2023-03-31T04:33:44;21.30;28.70
23618;DHT22;18207;32.078;34.818;2023-03-31T04:36:14;21.30;28.80
23618;DHT22;18207;32.078;34.818;2023-03-31T04:38:47;21.30;28.80
23618;DHT22;18207;32.078;34.818;2023-03-31T04:41:21;21.40;28.90
23618;DHT22;18207;32.078;34.818;2023-03-31T04:43:54;21.40;28.90
23618;DHT22;18207;32.078;34.818;2023-03-31T04:46:24;21.40;28.80
23618;DHT22;18207;32.078;34.818;2023-03-31T04:48:57;21.50;28.90
23618;DHT22;18207;32.078;34.818;2023-03-31T04:51:28;21.50;28.90
23618;DHT22;18207;32.078;34.818;2023-03-31T04:53:58;21.50;28.90
23618;DHT22;18207;32.078;34.818;2023-03-31T04:56:28;21.60;29.00
23618;DHT22;18207;32.078;34.818;2023-03-31T04:58:59;21.60;28.90
23618;DHT22;18207;32.078;34.818;2023-03-31T05:01:30;21.70;29.00
23618;DHT22;18207;32.078;34.818;2023-03-31T05:04:05;21.70;29.00
23618;DHT22;18207;32.078;34.818;2023-03-31T05:06:36;21.80;29.00
23618;DHT22;18207;32.078;34.818;2023-03-31T05:09:06;21.80;29.00
23618;DHT22;18207;32.078;34.818;2023-03-31T05:11:38;21.80;28.90
23618;DHT22;18207;32.078;34.818;2023-03-31T05:14:08;21.90;28.90
23618;DHT22;18207;32.078;34.818;2023-03-31T05:16:38;21.90;29.00
23618;DHT22;18207;32.078;34.818;2023-03-31T05:19:12;21.90;28.90
23618;DHT22;18207;32.078;34.818;2023-03-31T05:21:41;21.90;29.00
23618;DHT22;18207;32.078;34.818;2023-03-31T05:24:13;21.90;28.90
23618;DHT22;18207;32.078;34.818;2023-03-31T05:26:43;21.90;28.90
23618;DHT22;18207;32.078;34.818;2023-03-31T05:29:19;22.00;29.00
23618;DHT22;18207;32.078;34.818;2023-03-31T05:31:50;22.00;29.00
23618;DHT22;18207;32.078;34.818;2023-03-31T05:34:25;22.00;29.00
23618;DHT22;18207;32.078;34.818;2023-03-31T05:36:55;22.00;29.00
23618;DHT22;18207;32.078;34.818;2023-03-31T05:39:26;22.00;29.00
23618;DHT22;18207;32.078;34.818;2023-03-31T05:41:59;22.00;29.00
23618;DHT22;18207;32.078;34.818;2023-03-31T05:44:32;22.00;29.00
23618;DHT22;18207;32.078;34.818;2023-03-31T05:47:02;22.00;29.00
23618;DHT22;18207;32.078;34.818;2023-03-31T05:49:35;22.00;29.00
23618;DHT22;18207;32.078;34.818;2023-03-31T05:52:07;22.10;29.10
23618;DHT22;18207;32.078;34.818;2023-03-31T05:54:38;22.10;29.10
23618;DHT22;18207;32.078;34.818;2023-03-31T05:57:09;22.10;29.00
23618;DHT22;18207;32.078;34.818;2023-03-31T05:59:40;22.10;29.10
23618;DHT22;18207;32.078;34.818;2023-03-31T06:02:12;22.10;29.10
23618;DHT22;18207;32.078;34.818;2023-03-31T06:04:45;22.20;29.10
23618;DHT22;18207;32.078;34.818;2023-03-31T06:07:15;22.10;29.00
23618;DHT22;18207;32.078;34.818;2023-03-31T06:09:46;22.20;29.00
23618;DHT22;18207;32.078;34.818;2023-03-31T06:12:16;22.20;29.00
23618;DHT22;18207;32.078;34.818;2023-03-31T06:14:47;22.20;29.00
23618;DHT22;18207;32.078;34.818;2023-03-31T06:17:17;22.10;29.00
23618;DHT22;18207;32.078;34.818;2023-03-31T06:19:49;22.10;28.90
23618;DHT22;18207;32.078;34.818;2023-03-31T06:22:20;22.10;29.00
23618;DHT22;18207;32.078;34.818;2023-03-31T06:24:50;22.10;29.00
23618;DHT22;18207;32.078;34.818;2023-03-31T06:27:21;22.10;29.00
23618;DHT22;18207;32.078;34.818;2023-03-31T06:29:52;22.10;29.00
23618;DHT22;18207;32.078;34.818;2023-03-31T06:32:22;22.10;29.00
23618;DHT22;18207;32.078;34.818;2023-03-31T06:34:55;22.10;29.10
23618;DHT22;18207;32.078;34.818;2023-03-31T06:37:25;22.00;29.00
23618;DHT22;18207;32.078;34.818;2023-03-31T06:39:56;22.00;29.10
23618;DHT22;18207;32.078;34.818;2023-03-31T06:42:27;22.00;29.20
23618;DHT22;18207;32.078;34.818;2023-03-31T06:44:57;22.00;29.20
23618;DHT22;18207;32.078;34.818;2023-03-31T06:47:28;22.00;29.20
23618;DHT22;18207;32.078;34.818;2023-03-31T06:50:00;22.00;29.30
23618;DHT22;18207;32.078;34.818;2023-03-31T06:52:31;22.00;29.30
23618;DHT22;18207;32.078;34.818;2023-03-31T06:55:01;22.00;29.40
23618;DHT22;18207;32.078;34.818;2023-03-31T06:57:31;22.00;29.50
23618;DHT22;18207;32.078;34.818;2023-03-31T07:00:04;22.00;29.50
23618;DHT22;18207;32.078;34.818;2023-03-31T07:02:35;22.00;29.50
23618;DHT22;18207;32.078;34.818;2023-03-31T07:05:09;22.00;29.60
23618;DHT22;18207;32.078;34.818;2023-03-31T07:07:42;22.10;29.60
23618;DHT22;18207;32.078;34.818;2023-03-31T07:10:13;22.10;29.60
23618;DHT22;18207;32.078;34.818;2023-03-31T07:12:43;22.10;29.70
23618;DHT22;18207;32.078;34.818;2023-03-31T07:15:14;22.10;29.70
23618;DHT22;18207;32.078;34.818;2023-03-31T07:17:44;22.20;29.80
23618;DHT22;18207;32.078;34.818;2023-03-31T07:20:19;22.20;29.80
23618;DHT22;18207;32.078;34.818;2023-03-31T07:22:52;22.30;30.00
23618;DHT22;18207;32.078;34.818;2023-03-31T07:25:23;22.30;30.00
23618;DHT22;18207;32.078;34.818;2023-03-31T07:27:56;22.40;30.00
23618;DHT22;18207;32.078;34.818;2023-03-31T07:30:26;22.50;30.00
23618;DHT22;18207;32.078;34.818;2023-03-31T07:32:57;22.60;30.10
23618;DHT22;18207;32.078;34.818;2023-03-31T07:35:29;22.60;30.00
23618;DHT22;18207;32.078;34.818;2023-03-31T07:38:00;22.70;30.00
23618;DHT22;18207;32.078;34.818;2023-03-31T07:40:30;22.80;30.00
23618;DHT22;18207;32.078;34.818;2023-03-31T07:43:00;22.80;30.00
23618;DHT22;18207;32.078;34.818;2023-03-31T07:45:31;22.90;30.00
23618;DHT22;18207;32.078;34.818;2023-03-31T07:48:02;22.90;30.00
23618;DHT22;18207;32.078;34.818;2023-03-31T07:50:35;22.90;30.00
23618;DHT22;18207;32.078;34.818;2023-03-31T07:53:05;23.00;30.00
23618;DHT22;18207;32.078;34.818;2023-03-31T07:55:35;23.00;30.00
23618;DHT22;18207;32.078;34.818;2023-03-31T07:58:05;23.00;30.50
23618;DHT22;18207;32.078;34.818;2023-03-31T08:00:35;23.00;30.00
23618;DHT22;18207;32.078;34.818;2023-03-31T08:03:05;23.10;30.00
23618;DHT22;18207;32.078;34.818;2023-03-31T08:05:38;23.10;29.90
23618;DHT22;18207;32.078;34.818;2023-03-31T08:08:08;23.10;29.80
23618;DHT22;18207;32.078;34.818;2023-03-31T08:10:38;23.10;29.80
23618;DHT22;18207;32.078;34.818;2023-03-31T08:13:08;23.10;29.90
23618;DHT22;18207;32.078;34.818;2023-03-31T08:15:39;23.10;29.90
23618;DHT22;18207;32.078;34.818;2023-03-31T08:18:09;23.10;29.90
23618;DHT22;18207;32.078;34.818;2023-03-31T08:20:41;23.10;29.90
23618;DHT22;18207;32.078;34.818;2023-03-31T08:23:13;23.20;30.00
23618;DHT22;18207;32.078;34.818;2023-03-31T08:25:44;23.20;30.00
23618;DHT22;18207;32.078;34.818;2023-03-31T08:28:14;23.30;30.00
23618;DHT22;18207;32.078;34.818;2023-03-31T08:30:45;23.40;30.00
23618;DHT22;18207;32.078;34.818;2023-03-31T08:33:16;23.40;30.00
23618;DHT22;18207;32.078;34.818;2023-03-31T08:35:48;23.50;30.00
23618;DHT22;18207;32.078;34.818;2023-03-31T08:38:18;23.50;30.00
23618;DHT22;18207;32.078;34.818;2023-03-31T08:40:48;23.60;30.00
23618;DHT22;18207;32.078;34.818;2023-03-31T08:43:24;23.70;30.00
23618;DHT22;18207;32.078;34.818;2023-03-31T08:45:59;23.80;30.00
23618;DHT22;18207;32.078;34.818;2023-03-31T08:48:34;23.90;30.00
23618;DHT22;18207;32.078;34.818;2023-03-31T08:51:17;23.90;29.90
23618;DHT22;18207;32.078;34.818;2023-03-31T08:53:58;24.00;29.90
23618;DHT22;18207;32.078;34.818;2023-03-31T08:56:34;24.00;29.90
23618;DHT22;18207;32.078;34.818;2023-03-31T08:59:17;24.10;29.90
23618;DHT22;18207;32.078;34.818;2023-03-31T09:02:02;24.10;29.80
23618;DHT22;18207;32.078;34.818;2023-03-31T09:05:02;24.10;29.70
23618;DHT22;18207;32.078;34.818;2023-03-31T09:07:58;24.10;29.80
23618;DHT22;18207;32.078;34.818;2023-03-31T09:10:48;24.10;29.80
23618;DHT22;18207;32.078;34.818;2023-03-31T09:13:39;24.20;29.80
23618;DHT22;18207;32.078;34.818;2023-03-31T09:16:19;24.30;29.80
23618;DHT22;18207;32.078;34.818;2023-03-31T09:18:59;24.30;29.80
23618;DHT22;18207;32.078;34.818;2023-03-31T09:21:32;24.30;29.80
23618;DHT22;18207;32.078;34.818;2023-03-31T09:24:14;24.30;29.70
23618;DHT22;18207;32.078;34.818;2023-03-31T09:26:50;24.30;29.70
23618;DHT22;18207;32.078;34.818;2023-03-31T09:29:32;24.30;29.70
23618;DHT22;18207;32.078;34.818;2023-03-31T09:32:14;24.30;29.60
23618;DHT22;18207;32.078;34.818;2023-03-31T09:34:51;24.30;29.60
23618;DHT22;18207;32.078;34.818;2023-03-31T09:37:27;24.30;29.70
23618;DHT22;18207;32.078;34.818;2023-03-31T09:40:03;24.30;30.10
23618;DHT22;18207;32.078;34.818;2023-03-31T09:42:37;24.40;29.80
23618;DHT22;18207;32.078;34.818;2023-03-31T09:45:13;24.50;29.90
23618;DHT22;18207;32.078;34.818;2023-03-31T09:47:49;24.40;29.70
23618;DHT22;18207;32.078;34.818;2023-03-31T09:50:23;24.40;29.70
23618;DHT22;18207;32.078;34.818;2023-03-31T09:52:57;24.50;29.80
23618;DHT22;18207;32.078;34.818;2023-03-31T09:55:36;24.50;29.80
23618;DHT22;18207;32.078;34.818;2023-03-31T09:58:14;24.50;29.70
23618;DHT22;18207;32.078;34.818;2023-03-31T10:00:57;24.50;29.70
23618;DHT22;18207;32.078;34.818;2023-03-31T10:03:29;24.50;29.60
23618;DHT22;18207;32.078;34.818;2023-03-31T10:06:08;24.50;29.60
23618;DHT22;18207;32.078;34.818;2023-03-31T10:08:41;24.50;29.60
23618;DHT22;18207;32.078;34.818;2023-03-31T10:11:18;24.50;29.50
23618;DHT22;18207;32.078;34.818;2023-03-31T10:13:52;24.50;29.60
23618;DHT22;18207;32.078;34.818;2023-03-31T10:16:29;24.50;29.60
23618;DHT22;18207;32.078;34.818;2023-03-31T10:19:15;24.50;29.60
23618;DHT22;18207;32.078;34.818;2023-03-31T10:21:55;24.50;29.70
23618;DHT22;18207;32.078;34.818;2023-03-31T10:24:35;24.50;29.60
23618;DHT22;18207;32.078;34.818;2023-03-31T10:27:20;24.50;29.60
23618;DHT22;18207;32.078;34.818;2023-03-31T10:29:53;24.50;29.50
23618;DHT22;18207;32.078;34.818;2023-03-31T10:32:26;24.50;29.50
23618;DHT22;18207;32.078;34.818;2023-03-31T10:35:04;24.50;29.50
23618;DHT22;18207;32.078;34.818;2023-03-31T10:37:36;24.50;29.50
23618;DHT22;18207;32.078;34.818;2023-03-31T10:40:13;24.50;29.50
23618;DHT22;18207;32.078;34.818;2023-03-31T10:42:59;24.40;29.40
23618;DHT22;18207;32.078;34.818;2023-03-31T10:45:37;24.50;29.40
23618;DHT22;18207;32.078;34.818;2023-03-31T10:48:18;24.40;29.40
23618;DHT22;18207;32.078;34.818;2023-03-31T10:50:54;24.40;29.50
23618;DHT22;18207;32.078;34.818;2023-03-31T10:53:29;24.50;29.50
23618;DHT22;18207;32.078;34.818;2023-03-31T10:56:25;24.50;29.60
23618;DHT22;18207;32.078;34.818;2023-03-31T10:59:29;24.50;29.50
23618;DHT22;18207;32.078;34.818;2023-03-31T11:02:39;24.50;29.50
23618;DHT22;18207;32.078;34.818;2023-03-31T11:05:31;24.60;29.50
23618;DHT22;18207;32.078;34.818;2023-03-31T11:08:25;24.60;29.40
23618;DHT22;18207;32.078;34.818;2023-03-31T11:11:24;24.60;29.40
23618;DHT22;18207;32.078;34.818;2023-03-31T11:14:16;24.60;29.40
23618;DHT22;18207;32.078;34.818;2023-03-31T11:16:59;24.60;29.30
23618;DHT22;18207;32.078;34.818;2023-03-31T11:19:42;24.60;29.30
23618;DHT22;18207;32.078;34.818;2023-03-31T11:22:24;24.50;29.30
23618;DHT22;18207;32.078;34.818;2023-03-31T11:25:18;24.60;29.30
23618;DHT22;18207;32.078;34.818;2023-03-31T11:28:27;24.60;29.30
23618;DHT22;18207;32.078;34.818;2023-03-31T11:31:16;24.60;29.20
23618;DHT22;18207;32.078;34.818;2023-03-31T11:34:08;24.60;29.20
23618;DHT22;18207;32.078;34.818;2023-03-31T11:37:17;24.70;29.20
23618;DHT22;18207;32.078;34.818;2023-03-31T11:40:27;24.60;29.10
23618;DHT22;18207;32.078;34.818;2023-03-31T11:43:09;24.70;29.20
23618;DHT22;18207;32.078;34.818;2023-03-31T11:45:51;24.70;29.20
23618;DHT22;18207;32.078;34.818;2023-03-31T11:48:35;24.70;29.20
23618;DHT22;18207;32.078;34.818;2023-03-31T11:51:16;24.70;29.20
23618;DHT22;18207;32.078;34.818;2023-03-31T11:53:51;24.70;29.30
23618;DHT22;18207;32.078;34.818;2023-03-31T11:56:27;24.70;29.20
23618;DHT22;18207;32.078;34.818;2023-03-31T11:59:06;24.70;29.20
23618;DHT22;18207;32.078;34.818;2023-03-31T12:01:46;24.60;29.10
23618;DHT22;18207;32.078;34.818;2023-03-31T12:04:30;24.70;29.20
23618;DHT22;18207;32.078;34.818;2023-03-31T12:07:19;24.70;29.30
23618;DHT22;18207;32.078;34.818;2023-03-31T12:09:56;24.70;29.10
23618;DHT22;18207;32.078;34.818;2023-03-31T12:12:35;24.70;29.20
23618;DHT22;18207;32.078;34.818;2023-03-31T12:15:16;24.70;29.20
23618;DHT22;18207;32.078;34.818;2023-03-31T12:17:56;24.70;29.10
23618;DHT22;18207;32.078;34.818;2023-03-31T12:20:34;24.80;29.20
23618;DHT22;18207;32.078;34.818;2023-03-31T12:23:14;24.80;29.10
23618;DHT22;18207;32.078;34.818;2023-03-31T12:25:53;24.80;29.10
23618;DHT22;18207;32.078;34.818;2023-03-31T12:28:29;24.80;29.20
23618;DHT22;18207;32.078;34.818;2023-03-31T12:31:02;24.80;29.10
23618;DHT22;18207;32.078;34.818;2023-03-31T12:33:37;24.70;29.00
23618;DHT22;18207;32.078;34.818;2023-03-31T12:36:22;24.80;29.10
23618;DHT22;18207;32.078;34.818;2023-03-31T12:39:15;24.70;29.00
23618;DHT22;18207;32.078;34.818;2023-03-31T12:42:12;24.80;29.10
23618;DHT22;18207;32.078;34.818;2023-03-31T12:45:14;24.70;29.00
23618;DHT22;18207;32.078;34.818;2023-03-31T12:48:17;24.80;29.10
23618;DHT22;18207;32.078;34.818;2023-03-31T12:51:08;24.70;29.00
23618;DHT22;18207;32.078;34.818;2023-03-31T12:54:00;24.70;29.00
23618;DHT22;18207;32.078;34.818;2023-03-31T12:57:07;24.70;29.00
23618;DHT22;18207;32.078;34.818;2023-03-31T12:59:44;24.70;29.00
23618;DHT22;18207;32.078;34.818;2023-03-31T13:02:34;24.60;29.00
23618;DHT22;18207;32.078;34.818;2023-03-31T13:08:54;24.60;29.00
23618;DHT22;18207;32.078;34.818;2023-03-31T13:11:37;24.50;28.90
23618;DHT22;18207;32.078;34.818;2023-03-31T13:14:15;24.50;29.10
23618;DHT22;18207;32.078;34.818;2023-03-31T13:16:50;24.50;29.10
23618;DHT22;18207;32.078;34.818;2023-03-31T13:19:28;24.50;29.70
23618;DHT22;18207;32.078;34.818;2023-03-31T13:22:04;24.50;29.10
23618;DHT22;18207;32.078;34.818;2023-03-31T13:24:35;24.50;29.20
23618;DHT22;18207;32.078;34.818;2023-03-31T13:27:31;24.50;29.20
23618;DHT22;18207;32.078;34.818;2023-03-31T13:30:44;24.40;29.20
23618;DHT22;18207;32.078;34.818;2023-03-31T13:33:27;24.40;29.20
23618;DHT22;18207;32.078;34.818;2023-03-31T13:46:50;24.30;29.10
23618;DHT22;18207;32.078;34.818;2023-03-31T13:50:18;24.30;29.10
23618;DHT22;18207;32.078;34.818;2023-03-31T13:53:06;24.30;29.20
23618;DHT22;18207;32.078;34.818;2023-03-31T13:56:05;24.20;29.30
23618;DHT22;18207;32.078;34.818;2023-03-31T14:02:46;24.10;29.20
23618;DHT22;18207;32.078;34.818;2023-03-31T14:05:30;24.10;29.30
23618;DHT22;18207;32.078;34.818;2023-03-31T14:08:08;24.10;29.30
23618;DHT22;18207;32.078;34.818;2023-03-31T14:10:42;24.10;29.40
23618;DHT22;18207;32.078;34.818;2023-03-31T14:13:15;24.00;29.40
23618;DHT22;18207;32.078;34.818;2023-03-31T14:15:51;24.00;29.40
23618;DHT22;18207;32.078;34.818;2023-03-31T14:18:26;24.00;29.90
23618;DHT22;18207;32.078;34.818;2023-03-31T14:21:10;24.00;29.50
23618;DHT22;18207;32.078;34.818;2023-03-31T14:23:59;24.00;29.50
23618;DHT22;18207;32.078;34.818;2023-03-31T14:26:47;24.00;29.50
23618;DHT22;18207;32.078;34.818;2023-03-31T14:29:32;24.00;29.50
23618;DHT22;18207;32.078;34.818;2023-03-31T14:32:18;24.00;29.50
23618;DHT22;18207;32.078;34.818;2023-03-31T14:35:07;24.00;29.50
23618;DHT22;18207;32.078;34.818;2023-03-31T14:37:56;24.00;29.50
23618;DHT22;18207;32.078;34.818;2023-03-31T14:40:28;24.00;29.50
23618;DHT22;18207;32.078;34.818;2023-03-31T14:42:59;23.90;29.40
23618;DHT22;18207;32.078;34.818;2023-03-31T14:45:30;23.90;29.40
23618;DHT22;18207;32.078;34.818;2023-03-31T14:48:11;23.90;29.40
23618;DHT22;18207;32.078;34.818;2023-03-31T14:50:44;23.90;29.40
23618;DHT22;18207;32.078;34.818;2023-03-31T14:53:16;23.80;29.40
23618;DHT22;18207;32.078;34.818;2023-03-31T14:55:56;23.80;29.40
23618;DHT22;18207;32.078;34.818;2023-03-31T14:58:33;23.80;29.40
23618;DHT22;18207;32.078;34.818;2023-03-31T15:01:07;23.70;29.40
23618;DHT22;18207;32.078;34.818;2023-03-31T15:03:46;23.70;29.40
23618;DHT22;18207;32.078;34.818;2023-03-31T15:06:17;23.60;29.40
23618;DHT22;18207;32.078;34.818;2023-03-31T15:08:54;23.60;29.40
23618;DHT22;18207;32.078;34.818;2023-03-31T15:11:27;23.50;29.90
23618;DHT22;18207;32.078;34.818;2023-03-31T15:13:59;23.60;29.60
23618;DHT22;18207;32.078;34.818;2023-03-31T15:16:35;23.50;29.60
23618;DHT22;18207;32.078;34.818;2023-03-31T15:19:15;23.50;29.60
23618;DHT22;18207;32.078;34.818;2023-03-31T15:21:54;23.40;29.50
23618;DHT22;18207;32.078;34.818;2023-03-31T15:24:28;23.40;29.60
23618;DHT22;18207;32.078;34.818;2023-03-31T15:27:02;23.40;29.60
23618;DHT22;18207;32.078;34.818;2023-03-31T15:29:39;23.40;29.70
23618;DHT22;18207;32.078;34.818;2023-03-31T15:32:24;23.40;29.70
23618;DHT22;18207;32.078;34.818;2023-03-31T15:34:59;23.40;29.70
23618;DHT22;18207;32.078;34.818;2023-03-31T15:37:49;23.30;29.70
23618;DHT22;18207;32.078;34.818;2023-03-31T15:40:23;23.30;29.70
23618;DHT22;18207;32.078;34.818;2023-03-31T15:42:57;23.40;29.80
23618;DHT22;18207;32.078;34.818;2023-03-31T15:45:48;23.30;29.80
23618;DHT22;18207;32.078;34.818;2023-03-31T15:48:35;23.30;29.80
23618;DHT22;18207;32.078;34.818;2023-03-31T15:51:17;23.30;29.80
23618;DHT22;18207;32.078;34.818;2023-03-31T15:53:54;23.30;29.90
23618;DHT22;18207;32.078;34.818;2023-03-31T15:56:28;23.30;29.90
23618;DHT22;18207;32.078;34.818;2023-03-31T15:59:03;23.30;29.90
23618;DHT22;18207;32.078;34.818;2023-03-31T16:01:37;23.30;29.90
23618;DHT22;18207;32.078;34.818;2023-03-31T16:04:13;23.30;30.00
23618;DHT22;18207;32.078;34.818;2023-03-31T16:06:47;23.30;30.00
23618;DHT22;18207;32.078;34.818;2023-03-31T16:09:23;23.20;29.90
23618;DHT22;18207;32.078;34.818;2023-03-31T16:12:01;23.20;30.00
23618;DHT22;18207;32.078;34.818;2023-03-31T16:14:44;23.20;30.00
23618;DHT22;18207;32.078;34.818;2023-03-31T16:17:23;23.20;30.00
23618;DHT22;18207;32.078;34.818;2023-03-31T16:20:02;23.20;30.00
23618;DHT22;18207;32.078;34.818;2023-03-31T16:22:44;23.20;30.00
23618;DHT22;18207;32.078;34.818;2023-03-31T16:25:19;23.20;30.00
23618;DHT22;18207;32.078;34.818;2023-03-31T16:27:53;23.20;30.00
23618;DHT22;18207;32.078;34.818;2023-03-31T16:30:34;23.10;30.00
23618;DHT22;18207;32.078;34.818;2023-03-31T16:33:07;23.10;30.00
23618;DHT22;18207;32.078;34.818;2023-03-31T16:35:41;23.10;30.00
23618;DHT22;18207;32.078;34.818;2023-03-31T16:38:17;23.00;30.00
23618;DHT22;18207;32.078;34.818;2023-03-31T16:40:49;23.00;30.00
23618;DHT22;18207;32.078;34.818;2023-03-31T16:43:22;23.00;30.00
23618;DHT22;18207;32.078;34.818;2023-03-31T16:45:54;23.00;30.00